Sao Joao de Meriti, Brazil
Current Conditions -  °F | °C
As of 12:00 PM on Thursday 18 Dec 2014 (Local Time) from SBAF Reporting Station
Clear Clear  
Wind Chill: 95°   Ceiling: Unl
Heat Index: 97°   Visibility: 6mi
Dew Point: 64°   Wind: 5mph
Humidity: 36%   Direction: 10°N
Pressure: 29.8"   Gusts: NA
Location:  22.8°S, 43.35°W
Report Text: SBAF 181400Z 01004KT CAVOK 35/18 Q1009
Loading
Personal Weather Stations






























Interactive Weather Map New forecast layout! Learn more

10-Day Weather Forecast

Advertisements
Track Severe Weather on mobile